createdAt,value
2022-11-04T00:04:56.434Z,17.83
2022-11-04T00:10:17.074Z,16.90
2022-11-04T00:15:56.369Z,16.42
2022-11-04T00:21:35.623Z,16.27
2022-11-04T00:27:15.756Z,14.23
2022-11-04T00:32:55.437Z,16.35
2022-11-04T00:38:17.203Z,20.33
2022-11-04T00:43:37.811Z,20.42
2022-11-04T00:48:59.112Z,19.20
2022-11-04T00:54:19.931Z,17.17
2022-11-04T00:59:40.915Z,19.05
2022-11-04T01:05:02.003Z,19.75
2022-11-04T01:10:22.977Z,21.40
2022-11-04T01:15:43.574Z,19.02
2022-11-04T01:21:06.543Z,17.63
2022-11-04T01:26:28.917Z,20.52
2022-11-04T01:31:49.532Z,14.80
2022-11-04T01:37:10.401Z,19.75
2022-11-04T01:42:31.049Z,18.52
2022-11-04T01:48:00.688Z,17.27
2022-11-04T01:53:27.740Z,19.63
2022-11-04T01:58:52.729Z,17.02
2022-11-04T02:04:26.059Z,18.63
2022-11-04T02:09:47.189Z,16.00
2022-11-04T02:15:08.185Z,18.02
2022-11-04T02:20:33.942Z,21.58
2022-11-04T02:26:20.891Z,26.02
2022-11-04T02:31:54.034Z,20.20
2022-11-04T02:37:18.520Z,19.63
2022-11-04T02:43:02.511Z,19.38
2022-11-04T02:48:37.901Z,17.02
2022-11-04T02:54:03.470Z,18.77
2022-11-04T02:59:55.299Z,18.38
2022-11-04T03:05:20.390Z,18.10
2022-11-04T03:10:45.037Z,19.55
2022-11-04T03:16:11.615Z,18.85
2022-11-04T03:21:37.059Z,13.88
2022-11-04T03:27:12.626Z,15.93
2022-11-04T03:32:44.619Z,15.40
2022-11-04T03:38:05.753Z,13.35
2022-11-04T03:43:29.027Z,14.18
2022-11-04T03:48:53.127Z,20.05
2022-11-04T03:54:15.856Z,18.05
2022-11-04T04:00:07.151Z,16.65
2022-11-04T04:05:46.458Z,18.02
2022-11-04T04:11:23.656Z,16.45
2022-11-04T04:16:47.622Z,20.77
2022-11-04T04:22:14.578Z,18.80
2022-11-04T04:27:36.348Z,12.75
2022-11-04T04:33:03.387Z,17.38
2022-11-04T04:38:45.688Z,16.17
2022-11-04T04:44:34.353Z,17.23
2022-11-04T04:49:57.933Z,17.88
2022-11-04T04:55:19.528Z,18.33
2022-11-04T05:00:40.322Z,17.60
2022-11-04T05:06:01.069Z,21.13
2022-11-04T05:11:26.205Z,16.25
2022-11-04T05:16:48.150Z,18.70
2022-11-04T05:22:08.956Z,18.13
2022-11-04T05:27:29.631Z,15.05
2022-11-04T05:32:50.474Z,18.38
2022-11-04T05:38:11.210Z,17.67
2022-11-04T05:43:32.695Z,14.18
2022-11-04T05:48:54.096Z,17.10
2022-11-04T05:54:14.777Z,17.40
2022-11-04T05:59:35.401Z,19.27
2022-11-04T06:04:56.210Z,15.98
2022-11-04T06:10:16.983Z,17.38
2022-11-04T06:15:38.040Z,15.48
2022-11-04T06:21:09.533Z,18.70
2022-11-04T06:26:31.409Z,16.63
2022-11-04T06:31:51.998Z,18.35
2022-11-04T06:37:12.797Z,17.67
2022-11-04T06:42:33.370Z,16.55
2022-11-04T06:47:54.186Z,20.92
2022-11-04T06:53:14.912Z,21.10
2022-11-04T06:58:35.775Z,16.65
2022-11-04T07:03:58.687Z,16.77
2022-11-04T07:09:19.611Z,16.67
2022-11-04T07:14:40.836Z,18.52
2022-11-04T07:20:01.798Z,13.00
2022-11-04T07:25:23.394Z,16.42
2022-11-04T07:30:44.008Z,13.20
2022-11-04T07:36:06.436Z,16.10
2022-11-04T07:41:27.296Z,13.35
2022-11-04T07:46:48.005Z,16.50
2022-11-04T07:52:08.755Z,15.70
2022-11-04T07:57:29.591Z,15.18
2022-11-04T08:02:50.703Z,13.50
2022-11-04T08:08:11.522Z,9.93
2022-11-04T08:13:35.041Z,12.32
2022-11-04T08:19:01.667Z,12.18
2022-11-04T08:24:22.735Z,11.75
2022-11-04T08:29:43.646Z,14.68
2022-11-04T08:35:04.648Z,15.95
2022-11-04T08:40:25.862Z,14.30
2022-11-04T08:45:46.846Z,14.63
2022-11-04T08:51:13.117Z,13.75
2022-11-04T08:56:39.077Z,12.02
2022-11-04T09:02:00.170Z,12.70
2022-11-04T09:07:21.332Z,11.63
2022-11-04T09:12:43.038Z,12.57
2022-11-04T09:18:04.164Z,9.27
2022-11-04T09:23:25.116Z,12.75
2022-11-04T09:28:46.036Z,14.38
2022-11-04T09:34:06.774Z,9.27
2022-11-04T09:39:27.627Z,8.95
2022-11-04T09:45:20.079Z,10.52
2022-11-04T09:50:49.341Z,8.15
2022-11-04T09:56:26.944Z,9.80
2022-11-04T10:02:03.017Z,7.60
2022-11-04T10:07:49.088Z,8.25
2022-11-04T10:13:19.223Z,7.88
2022-11-04T10:24:16.300Z,8.48
2022-11-04T10:29:43.098Z,6.25
2022-11-04T10:35:13.059Z,5.82
2022-11-04T10:46:07.369Z,9.00
2022-11-04T10:51:28.036Z,7.07
2022-11-04T10:56:56.800Z,5.35
2022-11-04T11:02:18.100Z,4.90
2022-11-04T11:07:39.242Z,7.70
2022-11-04T11:13:08.326Z,7.35
2022-11-04T11:18:29.634Z,4.57
2022-11-04T11:23:54.619Z,6.72
2022-11-04T11:29:29.480Z,9.60
2022-11-04T11:34:50.317Z,7.47
2022-11-04T11:40:28.298Z,7.25
2022-11-04T11:45:50.813Z,4.15
2022-11-04T11:51:26.257Z,7.50
2022-11-04T11:57:15.895Z,8.57
2022-11-04T12:02:50.627Z,4.75
2022-11-04T12:14:24.985Z,9.55
2022-11-04T12:20:20.112Z,6.53
2022-11-04T12:26:13.774Z,9.77
2022-11-04T12:31:51.248Z,8.73
2022-11-04T12:37:33.318Z,7.72
2022-11-04T12:43:12.335Z,6.57
2022-11-04T12:48:39.246Z,5.88
2022-11-04T12:54:19.072Z,5.80
2022-11-04T13:00:03.301Z,4.93
2022-11-04T13:05:58.468Z,3.45
2022-11-04T13:11:36.178Z,6.03
2022-11-04T13:17:01.111Z,5.95
2022-11-04T13:22:34.002Z,6.05
2022-11-04T13:27:54.995Z,4.47
2022-11-04T13:33:58.418Z,4.30
2022-11-04T13:39:29.544Z,3.28
2022-11-04T13:44:54.269Z,4.03
2022-11-04T13:50:37.433Z,4.85
2022-11-04T13:56:09.473Z,4.25
2022-11-04T14:01:39.141Z,4.38
2022-11-04T14:07:04.433Z,2.95
2022-11-04T14:12:30.901Z,5.60
2022-11-04T14:17:52.038Z,4.90
2022-11-04T14:23:24.514Z,3.35
2022-11-04T14:28:48.205Z,1.83
2022-11-04T14:34:26.059Z,4.38
2022-11-04T14:39:58.257Z,2.40
2022-11-04T14:45:25.656Z,3.55
2022-11-04T14:50:51.125Z,9.73
2022-11-04T14:56:24.385Z,3.63
2022-11-04T15:01:45.948Z,3.20
2022-11-04T15:07:29.238Z,2.40
2022-11-04T15:12:53.653Z,2.35
2022-11-04T15:18:21.798Z,3.45
2022-11-04T15:23:55.931Z,2.35
2022-11-04T15:29:18.659Z,3.65
2022-11-04T15:34:39.735Z,4.63
2022-11-04T15:40:00.833Z,2.42
2022-11-04T15:45:34.825Z,3.95
2022-11-04T15:51:17.198Z,2.88
2022-11-04T15:56:50.055Z,4.57
2022-11-04T16:02:49.242Z,4.63
2022-11-04T16:08:29.138Z,3.38
2022-11-04T16:13:50.003Z,2.50
2022-11-04T16:19:23.130Z,3.78
2022-11-04T16:24:48.924Z,3.65
2022-11-04T16:30:17.570Z,3.58
2022-11-04T16:35:42.818Z,3.95
2022-11-04T16:41:03.811Z,3.88
2022-11-04T16:46:24.834Z,3.50
2022-11-04T16:51:49.706Z,2.97
2022-11-04T16:57:13.287Z,4.65
2022-11-04T17:02:37.908Z,2.58
2022-11-04T17:08:04.504Z,2.92
2022-11-04T17:13:26.069Z,2.05
2022-11-04T17:18:46.943Z,2.13
2022-11-04T17:24:07.652Z,1.85
2022-11-04T17:29:29.977Z,2.03
2022-11-04T17:34:53.201Z,1.65
2022-11-04T17:40:18.454Z,2.72
2022-11-04T17:45:41.390Z,0.70
2022-11-04T17:51:07.693Z,1.50
2022-11-04T17:56:28.607Z,1.20
2022-11-04T18:01:49.796Z,1.48
2022-11-04T18:07:10.657Z,2.33
2022-11-04T18:12:37.233Z,1.20
2022-11-04T18:17:58.117Z,2.15
2022-11-04T18:23:18.761Z,1.20
2022-11-04T18:28:40.280Z,1.30
2022-11-04T18:34:04.516Z,0.65
2022-11-04T18:39:25.597Z,1.73
2022-11-04T18:44:46.533Z,1.00
2022-11-04T18:50:07.572Z,0.88
2022-11-04T18:55:32.946Z,4.95
2022-11-04T19:00:54.137Z,1.88
2022-11-04T19:06:17.814Z,1.75
2022-11-04T19:11:40.089Z,1.75
2022-11-04T19:17:00.821Z,2.67
2022-11-04T19:22:21.508Z,2.22
2022-11-04T19:27:42.408Z,2.80
2022-11-04T19:33:03.020Z,2.50
2022-11-04T19:38:24.528Z,2.30
2022-11-04T19:43:45.536Z,2.08
2022-11-04T19:49:07.749Z,2.20
2022-11-04T19:54:29.439Z,2.22
2022-11-04T19:59:51.117Z,2.92
2022-11-04T20:05:12.136Z,5.28
2022-11-04T20:10:36.107Z,3.00
2022-11-04T20:15:57.371Z,2.17
2022-11-04T20:21:20.338Z,3.33
2022-11-04T20:26:46.727Z,2.92
2022-11-04T20:32:07.617Z,2.60
2022-11-04T20:37:28.406Z,2.63
2022-11-04T20:42:49.073Z,2.28
2022-11-04T20:48:10.081Z,3.67
2022-11-04T20:53:31.352Z,1.90
2022-11-04T20:58:57.718Z,4.05
2022-11-04T21:04:21.466Z,1.98
2022-11-04T21:09:42.180Z,2.65
2022-11-04T21:15:03.172Z,1.67
2022-11-04T21:20:24.176Z,3.83
2022-11-04T21:25:54.202Z,3.78
2022-11-04T21:31:15.030Z,3.17
2022-11-04T21:36:36.264Z,2.80
2022-11-04T21:41:57.141Z,2.28
2022-11-04T21:47:17.797Z,3.67
2022-11-04T21:52:38.532Z,1.67
2022-11-04T21:57:59.216Z,2.58
2022-11-04T22:03:19.920Z,1.33
2022-11-04T22:08:46.711Z,1.40
2022-11-04T22:14:11.523Z,2.15
2022-11-04T22:19:32.228Z,4.00
2022-11-04T22:25:06.183Z,2.15
2022-11-04T22:30:27.313Z,1.73
2022-11-04T22:35:48.113Z,3.65
2022-11-04T22:41:15.056Z,1.40
2022-11-04T22:46:36.079Z,2.78
2022-11-04T22:51:56.887Z,6.10
2022-11-04T22:57:17.776Z,3.28
2022-11-04T23:02:38.790Z,2.17
2022-11-04T23:08:00.669Z,5.20
2022-11-04T23:13:40.066Z,5.53
2022-11-04T23:19:00.860Z,3.13
2022-11-04T23:24:40.132Z,3.92
2022-11-04T23:30:20.861Z,2.70
2022-11-04T23:36:05.320Z,3.33
2022-11-04T23:41:44.587Z,5.95
2022-11-04T23:47:23.720Z,5.43
2022-11-04T23:53:10.851Z,4.30
2022-11-04T23:58:50.605Z,3.30
